Time;durP1;ratioP1;P1;durP2;ratioP2;P2;SDS_P1;SDS_P2;PMS_P1;PMS_P2;Temp;Humidity;BMP_temperature;BMP_pressure;BME280_temperature;BME280_humidity;BME280_pressure;Samples;Min_cycle;Max_cycle;Signal;HPM_P1;HPM_P2
2023/05/27 00:02:06;;;;;;;;;;;;;;;14.39;48.09;101719.22;4960098;28;7638;-74
2023/05/27 00:04:32;;;;;;;;;;;;;;;14.34;48.72;101712.94;4973890;28;8686;-73
2023/05/27 00:06:57;;;;;;;;;;;;;;;14.30;48.24;101705.06;4993076;28;6784;-73
2023/05/27 00:09:23;;;;;;;;;;;;;;;14.30;48.93;101710.22;4961642;28;7029;-75
2023/05/27 00:11:49;;;;;;;;;;;;;;;14.27;48.32;101710.03;4960739;28;6943;-73
2023/05/27 00:14:17;;;;;;;;;;;;;;;14.25;48.71;101705.63;4990419;28;8251;-73
2023/05/27 00:16:43;;;;;;;;;;;;;;;14.24;48.32;101704.72;4987306;28;7015;-72
2023/05/27 00:19:08;;;;;;;;;;;;;;;14.23;48.83;101702.03;4945809;28;7196;-74
2023/05/27 00:21:34;;;;;;;;;;;;;;;14.22;48.78;101703.75;4988779;28;7193;-73
2023/05/27 00:24:00;;;;;;;;;;;;;;;14.23;49.29;101700.38;4961130;28;6772;-72
2023/05/27 00:26:29;;;;;;;;;;;;;;;14.21;48.85;101701.97;4990232;28;6827;-73
2023/05/27 00:28:54;;;;;;;;;;;;;;;14.18;48.84;101701.78;4958691;28;6779;-73
2023/05/27 00:31:20;;;;;;;;;;;;;;;14.15;48.90;101704.22;4959713;28;6845;-73
2023/05/27 00:33:46;;;;;;;;;;;;;;;14.11;49.81;101704.88;4992425;28;6983;-74
2023/05/27 00:36:11;;;;;;;;;;;;;;;14.08;49.44;101700.44;4962021;28;7278;-72
2023/05/27 00:38:37;;;;;;;;;;;;;;;14.05;49.45;101694.22;4963023;28;6935;-72
2023/05/27 00:41:04;;;;;;;;;;;;;;;14.02;49.67;101702.66;4942520;28;6966;-74
2023/05/27 00:43:30;;;;;;;;;;;;;;;13.99;49.79;101700.78;4957715;28;7149;-73
2023/05/27 00:45:56;;;;;;;;;;;;;;;13.96;49.27;101694.59;4952924;28;6979;-73
2023/05/27 00:48:22;;;;;;;;;;;;;;;13.94;49.47;101697.09;4958898;28;6970;-72
2023/05/27 00:50:48;;;;;;;;;;;;;;;13.93;49.45;101697.00;4958240;28;6950;-71
2023/05/27 00:53:16;;;;;;;;;;;;;;;13.89;50.07;101693.34;4964973;28;7534;-74
2023/05/27 00:55:42;;;;;;;;;;;;;;;13.87;50.16;101688.16;4959927;28;7036;-76
2023/05/27 00:58:09;;;;;;;;;;;;;;;13.84;50.53;101698.25;4971800;28;7703;-75
2023/05/27 01:00:38;;;;;;;;;;;;;;;13.83;49.77;101696.50;4960817;28;7047;-75
2023/05/27 01:03:06;;;;;;;;;;;;;;;13.79;50.12;101694.56;4993807;28;7063;-74
2023/05/27 01:05:33;;;;;;;;;;;;;;;13.77;50.29;101700.41;4991038;28;7189;-74
2023/05/27 01:08:29;;;;;;;;;;;;;;;13.73;49.83;101700.25;4960569;28;6784;-72
2023/05/27 01:10:56;;;;;;;;;;;;;;;13.68;50.82;101700.81;4966786;28;7102;-74
2023/05/27 01:13:45;;;;;;;;;;;;;;;13.66;50.91;101703.28;4972196;28;6991;-73
2023/05/27 01:16:15;;;;;;;;;;;;;;;13.62;50.74;101701.34;4951777;28;7093;-73
2023/05/27 01:18:44;;;;;;;;;;;;;;;13.59;50.19;101698.59;4990204;28;7003;-72
2023/05/27 01:21:14;;;;;;;;;;;;;;;13.57;51.41;101697.63;4942899;28;7256;-74
2023/05/27 01:23:44;;;;;;;;;;;;;;;13.54;50.96;101692.31;4961660;28;6800;-74
2023/05/27 01:26:10;;;;;;;;;;;;;;;13.52;50.77;101688.72;4985302;28;6796;-74
2023/05/27 01:28:36;;;;;;;;;;;;;;;13.49;50.89;101689.47;4987626;28;7204;-73
2023/05/27 01:31:35;;;;;;;;;;;;;;;13.47;50.89;101680.75;4979019;28;8563;-73
2023/05/27 01:34:08;;;;;;;;;;;;;;;13.46;51.18;101682.44;4956723;28;6863;-75
2023/05/27 01:36:45;;;;;;;;;;;;;;;13.47;50.91;101681.63;4990122;28;6788;-74
2023/05/27 01:39:12;;;;;;;;;;;;;;;13.45;51.50;101677.19;4974681;28;6811;-75
2023/05/27 01:41:40;;;;;;;;;;;;;;;13.44;51.34;101676.31;4987920;28;7071;-74
2023/05/27 01:44:06;;;;;;;;;;;;;;;13.41;51.65;101670.94;4960856;28;6791;-76
2023/05/27 01:46:32;;;;;;;;;;;;;;;13.40;50.97;101669.19;4954988;28;8707;-74
2023/05/27 01:48:58;;;;;;;;;;;;;;;13.38;51.22;101665.63;4962973;28;6956;-73
2023/05/27 01:51:23;;;;;;;;;;;;;;;13.35;51.10;101665.47;4959316;28;6935;-74
2023/05/27 01:53:49;;;;;;;;;;;;;;;13.32;51.83;101662.69;4961543;28;7235;-75
2023/05/27 01:56:15;;;;;;;;;;;;;;;13.28;51.36;101664.25;4975185;28;6963;-75
2023/05/27 01:58:41;;;;;;;;;;;;;;;13.25;51.15;101661.47;4957847;28;6879;-74
2023/05/27 02:01:06;;;;;;;;;;;;;;;13.22;51.44;101668.13;4988081;28;6795;-75
2023/05/27 02:03:32;;;;;;;;;;;;;;;13.18;51.48;101669.63;4958470;28;6784;-74
2023/05/27 02:05:58;;;;;;;;;;;;;;;13.15;51.87;101665.22;4987439;28;6776;-74
2023/05/27 02:08:23;;;;;;;;;;;;;;;13.15;52.27;101656.59;4988052;28;7211;-75
2023/05/27 02:10:49;;;;;;;;;;;;;;;13.13;51.59;101658.19;4947308;28;7200;-75
2023/05/27 02:13:15;;;;;;;;;;;;;;;13.10;51.63;101656.31;4969894;28;7034;-75
2023/05/27 02:15:40;;;;;;;;;;;;;;;13.10;51.50;101658.91;4992699;28;6832;-74
2023/05/27 02:18:06;;;;;;;;;;;;;;;13.09;51.87;101657.13;4975707;28;6966;-74
2023/05/27 02:20:32;;;;;;;;;;;;;;;13.05;51.45;101663.78;4958668;28;7196;-74
2023/05/27 02:22:57;;;;;;;;;;;;;;;13.03;51.39;101659.34;4946678;28;6787;-76
2023/05/27 02:25:23;;;;;;;;;;;;;;;13.01;51.47;101648.97;4990883;28;6775;-73
2023/05/27 02:27:50;;;;;;;;;;;;;;;13.00;52.68;101654.03;4975638;28;6788;-74
2023/05/27 02:30:16;;;;;;;;;;;;;;;12.99;51.85;101655.72;4994863;28;6807;-76
2023/05/27 02:32:43;;;;;;;;;;;;;;;12.97;52.12;101656.44;4990454;28;7879;-74
2023/05/27 02:35:12;;;;;;;;;;;;;;;12.95;51.93;101652.88;4991154;28;6800;-76
2023/05/27 02:37:38;;;;;;;;;;;;;;;12.94;52.37;101653.66;4957710;28;6812;-76
2023/05/27 02:40:05;;;;;;;;;;;;;;;12.91;52.06;101657.81;4944320;28;7098;-76
2023/05/27 02:42:30;;;;;;;;;;;;;;;12.88;52.10;101649.03;4972167;28;7438;-75
2023/05/27 02:44:56;;;;;;;;;;;;;;;12.86;52.42;101648.97;4984556;28;6950;-76
2023/05/27 02:47:22;;;;;;;;;;;;;;;12.83;52.45;101650.47;4986867;28;6787;-74
2023/05/27 02:49:47;;;;;;;;;;;;;;;12.81;51.98;101646.94;4992900;28;7228;-75
2023/05/27 02:52:13;;;;;;;;;;;;;;;12.77;52.13;101643.28;4992719;28;6848;-76
2023/05/27 02:54:38;;;;;;;;;;;;;;;12.74;52.87;101646.56;4989122;28;6832;-76
2023/05/27 02:57:04;;;;;;;;;;;;;;;12.72;52.79;101645.59;4960281;28;6772;-76
2023/05/27 02:59:30;;;;;;;;;;;;;;;12.70;52.40;101646.28;4990767;28;6871;-76
2023/05/27 03:01:55;;;;;;;;;;;;;;;12.68;52.29;101642.75;4967057;28;7085;-76
2023/05/27 03:04:21;;;;;;;;;;;;;;;12.67;52.80;101644.41;4963620;28;7151;-76
2023/05/27 03:06:47;;;;;;;;;;;;;;;12.64;52.66;101647.69;4946345;28;7170;-76
2023/05/27 03:09:14;;;;;;;;;;;;;;;12.63;52.90;101639.88;4993351;28;6772;-76
2023/05/27 03:11:40;;;;;;;;;;;;;;;12.60;52.69;101640.59;4988720;28;7035;-76
2023/05/27 03:14:05;;;;;;;;;;;;;;;12.58;52.87;101644.75;4960404;28;6838;-76
2023/05/27 03:16:31;;;;;;;;;;;;;;;12.57;53.29;101645.56;4958357;28;6791;-76
2023/05/27 03:18:57;;;;;;;;;;;;;;;12.56;53.33;101646.38;4944759;28;7274;-76
2023/05/27 03:21:22;;;;;;;;;;;;;;;12.54;52.89;101642.78;4963715;28;6979;-76
2023/05/27 03:23:48;;;;;;;;;;;;;;;12.53;52.75;101637.56;4980490;28;7171;-76
2023/05/27 03:26:13;;;;;;;;;;;;;;;12.50;52.87;101639.13;4974988;28;7390;-76
2023/05/27 03:28:39;;;;;;;;;;;;;;;12.49;52.81;101636.50;4987214;28;8015;-76
2023/05/27 03:31:05;;;;;;;;;;;;;;;12.48;53.74;101645.00;4960411;28;6816;-76
2023/05/27 03:33:31;;;;;;;;;;;;;;;12.46;53.54;101642.34;4991725;28;6771;-76
2023/05/27 03:35:57;;;;;;;;;;;;;;;12.44;53.40;101643.94;4949912;28;7415;-76
2023/05/27 03:38:22;;;;;;;;;;;;;;;12.44;53.60;101643.94;4990314;28;6772;-76
2023/05/27 03:40:48;;;;;;;;;;;;;;;12.43;53.84;101637.00;4992566;28;7221;-76
2023/05/27 03:43:14;;;;;;;;;;;;;;;12.41;53.20;101632.56;4962074;28;6840;-76
2023/05/27 03:45:39;;;;;;;;;;;;;;;12.43;53.64;101633.53;4990631;28;7182;-75
2023/05/27 03:48:05;;;;;;;;;;;;;;;12.42;53.67;101640.38;4958013;28;7021;-76
2023/05/27 03:50:33;;;;;;;;;;;;;;;12.42;53.83;101629.19;4960404;28;6772;-76
2023/05/27 03:52:59;;;;;;;;;;;;;;;12.42;53.87;101630.09;4989816;28;8262;-76
2023/05/27 03:55:26;;;;;;;;;;;;;;;12.44;54.08;101632.75;4959761;28;6792;-76
2023/05/27 03:57:51;;;;;;;;;;;;;;;12.45;53.47;101637.09;4983632;28;7445;-76
2023/05/27 04:00:17;;;;;;;;;;;;;;;12.44;53.96;101631.06;4990175;28;7122;-76
2023/05/27 04:02:43;;;;;;;;;;;;;;;12.47;54.06;101633.81;4977582;28;7029;-76
2023/05/27 04:05:09;;;;;;;;;;;;;;;12.50;53.98;101628.84;4991502;28;7181;-74
2023/05/27 04:07:34;;;;;;;;;;;;;;;12.53;54.08;101633.28;4991392;28;6768;-74
2023/05/27 04:10:00;;;;;;;;;;;;;;;12.55;54.61;101631.69;4989634;28;6788;-74
2023/05/27 04:12:26;;;;;;;;;;;;;;;12.57;53.86;101635.28;4990017;28;6780;-76
2023/05/27 04:14:51;;;;;;;;;;;;;;;12.61;54.56;101632.06;4992524;28;7154;-76
2023/05/27 04:17:17;;;;;;;;;;;;;;;12.65;54.50;101635.72;4957535;28;7155;-76
2023/05/27 04:19:43;;;;;;;;;;;;;;;12.72;54.12;101631.81;4991152;28;6784;-76
2023/05/27 04:22:09;;;;;;;;;;;;;;;12.83;54.46;101640.19;4962012;28;6788;-76
2023/05/27 04:24:35;;;;;;;;;;;;;;;12.99;54.42;101639.38;4950442;28;7059;-76
2023/05/27 04:27:02;;;;;;;;;;;;;;;13.14;55.00;101634.22;4991174;28;6788;-76
2023/05/27 04:29:28;;;;;;;;;;;;;;;13.30;55.07;101631.72;4962655;28;6816;-76
2023/05/27 04:31:54;;;;;;;;;;;;;;;13.44;54.89;101632.53;4966600;28;6944;-76
2023/05/27 04:34:20;;;;;;;;;;;;;;;13.63;54.14;101624.94;4957642;28;6926;-76
2023/05/27 04:36:49;;;;;;;;;;;;;;;13.75;53.98;101631.66;4992272;28;6792;-73
2023/05/27 04:39:16;;;;;;;;;;;;;;;13.92;53.90;101634.28;4972267;28;7016;-70
2023/05/27 04:41:42;;;;;;;;;;;;;;;14.07;54.08;101635.88;4986521;28;6856;-73
2023/05/27 04:44:08;;;;;;;;;;;;;;;14.23;54.10;101635.00;4954123;28;7466;-70
2023/05/27 04:46:34;;;;;;;;;;;;;;;14.40;54.05;101634.19;4958388;28;7365;-72
2023/05/27 04:49:00;;;;;;;;;;;;;;;14.56;53.60;101638.44;4978137;28;7715;-72
2023/05/27 04:51:26;;;;;;;;;;;;;;;14.69;53.46;101632.22;4960141;28;7277;-74
2023/05/27 04:53:54;;;;;;;;;;;;;;;14.84;53.10;101621.81;4989906;28;7262;-75
2023/05/27 04:56:19;;;;;;;;;;;;;;;15.00;52.55;101627.75;4959518;28;6955;-74
2023/05/27 04:58:48;;;;;;;;;;;;;;;15.14;52.27;101624.16;4955236;28;6776;-74
2023/05/27 05:01:17;;;;;;;;;;;;;;;15.31;52.21;101631.84;4985610;28;6800;-74
2023/05/27 05:03:52;;;;;;;;;;;;;;;15.49;51.72;101628.38;4986172;28;6999;-75
2023/05/27 05:06:20;;;;;;;;;;;;;;;15.65;52.03;101623.13;4984625;28;7295;-74
2023/05/27 05:08:47;;;;;;;;;;;;;;;15.79;51.48;101623.75;4977847;28;7020;-71
2023/05/27 05:11:14;;;;;;;;;;;;;;;15.90;51.18;101623.38;4978816;28;6984;-72
2023/05/27 05:13:40;;;;;;;;;;;;;;;15.98;50.93;101624.59;4961611;28;7339;-71
2023/05/27 05:16:06;;;;;;;;;;;;;;;16.09;50.87;101628.59;4958300;28;6772;-73
2023/05/27 05:18:31;;;;;;;;;;;;;;;16.21;50.44;101623.03;4956114;28;7921;-72
2023/05/27 05:20:57;;;;;;;;;;;;;;;16.34;50.27;101628.78;4987928;28;6850;-72
2023/05/27 05:23:22;;;;;;;;;;;;;;;16.43;49.85;101626.59;4984822;28;6914;-70
2023/05/27 05:25:54;;;;;;;;;;;;;;;16.51;49.48;101627.81;4988175;28;6875;-72
2023/05/27 05:28:20;;;;;;;;;;;;;;;16.58;49.16;101626.38;4982151;28;7405;-72
2023/05/27 05:30:45;;;;;;;;;;;;;;;16.64;49.45;101615.41;4955787;28;6772;-72
2023/05/27 05:33:11;;;;;;;;;;;;;;;16.73;49.41;101620.97;4977997;28;7315;-71
2023/05/27 05:35:37;;;;;;;;;;;;;;;16.82;49.05;101615.28;4939083;28;6937;-71
2023/05/27 05:38:02;;;;;;;;;;;;;;;16.92;49.11;101617.44;4979335;28;6938;-73
2023/05/27 05:40:28;;;;;;;;;;;;;;;17.05;48.76;101623.16;4948431;28;6768;-71
2023/05/27 05:42:53;;;;;;;;;;;;;;;17.12;48.30;101622.56;4962672;28;6995;-71
2023/05/27 05:45:19;;;;;;;;;;;;;;;17.14;48.02;101618.34;4956903;28;7035;-72
2023/05/27 05:47:45;;;;;;;;;;;;;;;17.13;47.41;101620.88;4953253;28;6776;-72
2023/05/27 05:50:10;;;;;;;;;;;;;;;17.02;46.94;101623.91;4959886;28;6772;-72
2023/05/27 05:52:36;;;;;;;;;;;;;;;16.88;46.96;101622.41;4961131;28;6964;-72
2023/05/27 05:55:02;;;;;;;;;;;;;;;16.74;47.10;101630.50;4978017;28;7145;-72
2023/05/27 05:57:31;;;;;;;;;;;;;;;16.64;47.19;101636.97;4964107;28;7408;-71
2023/05/27 05:59:57;;;;;;;;;;;;;;;16.56;47.57;101637.47;4959799;28;6804;-73
2023/05/27 06:02:23;;;;;;;;;;;;;;;16.46;47.16;101633.59;4985748;28;7133;-73
2023/05/27 06:04:48;;;;;;;;;;;;;;;16.41;47.36;101642.88;4960057;28;6861;-71
2023/05/27 06:07:14;;;;;;;;;;;;;;;16.37;47.41;101640.16;4960589;28;6839;-71
2023/05/27 06:09:40;;;;;;;;;;;;;;;16.36;47.82;101637.50;4954001;28;7413;-72
2023/05/27 06:12:06;;;;;;;;;;;;;;;16.37;48.16;101634.09;4960507;28;6772;-71
2023/05/27 06:14:32;;;;;;;;;;;;;;;16.39;47.99;101624.69;4949757;28;7161;-72
2023/05/27 06:16:57;;;;;;;;;;;;;;;16.42;48.09;101622.25;4956661;28;7470;-71
2023/05/27 06:19:23;;;;;;;;;;;;;;;16.45;48.48;101622.38;4962077;28;6796;-72
2023/05/27 06:21:48;;;;;;;;;;;;;;;16.48;48.14;101617.31;4957194;28;6772;-72
2023/05/27 06:24:15;;;;;;;;;;;;;;;16.52;48.04;101616.66;4988929;28;6791;-72
2023/05/27 06:26:40;;;;;;;;;;;;;;;16.58;48.01;101622.88;4975250;28;6976;-73
2023/05/27 06:29:06;;;;;;;;;;;;;;;16.63;47.72;101616.22;4961140;28;7259;-74
2023/05/27 06:31:33;;;;;;;;;;;;;;;16.68;48.00;101617.28;4961959;28;6780;-75
2023/05/27 06:33:59;;;;;;;;;;;;;;;16.74;47.80;101604.63;4954421;28;7055;-76
2023/05/27 06:36:24;;;;;;;;;;;;;;;16.80;48.14;101607.47;4992762;28;6816;-70
2023/05/27 06:38:50;;;;;;;;;;;;;;;16.87;48.02;101599.94;4984251;28;6828;-71
2023/05/27 06:41:16;;;;;;;;;;;;;;;16.93;48.02;101601.06;4995121;28;6968;-71
2023/05/27 06:43:42;;;;;;;;;;;;;;;16.99;47.74;101607.31;4966026;28;6780;-71
2023/05/27 06:46:07;;;;;;;;;;;;;;;17.08;47.78;101607.75;4962679;28;6978;-74
2023/05/27 06:48:33;;;;;;;;;;;;;;;17.18;47.87;101593.44;4960525;28;6919;-73
2023/05/27 06:51:00;;;;;;;;;;;;;;;17.25;47.57;101592.84;4980691;28;6820;-73
2023/05/27 06:53:25;;;;;;;;;;;;;;;17.33;47.22;101594.06;4951472;28;6984;-71
2023/05/27 06:55:51;;;;;;;;;;;;;;;17.41;47.26;101590.88;4994421;28;6772;-71
2023/05/27 06:58:16;;;;;;;;;;;;;;;17.52;47.22;101593.88;4992377;28;6848;-73
2023/05/27 07:00:42;;;;;;;;;;;;;;;17.65;47.49;101598.72;4981135;28;6776;-71
2023/05/27 07:03:08;;;;;;;;;;;;;;;17.89;47.75;101595.25;4991766;28;7214;-72
2023/05/27 07:05:33;;;;;;;;;;;;;;;18.20;47.42;101593.81;4950610;28;6954;-71
2023/05/27 07:07:59;;;;;;;;;;;;;;;18.52;47.50;101586.28;4994956;28;7024;-74
2023/05/27 07:10:24;;;;;;;;;;;;;;;18.86;47.16;101578.72;4987703;28;6779;-72
2023/05/27 07:12:50;;;;;;;;;;;;;;;19.25;47.29;101580.88;4988207;28;6779;-74
2023/05/27 07:15:16;;;;;;;;;;;;;;;19.63;46.73;101581.97;4991159;28;6876;-71
2023/05/27 07:17:41;;;;;;;;;;;;;;;19.98;45.88;101574.31;4980903;28;6958;-73
2023/05/27 07:20:08;;;;;;;;;;;;;;;20.28;45.47;101573.41;4991570;28;6795;-71
2023/05/27 07:22:33;;;;;;;;;;;;;;;20.61;44.88;101567.31;4965172;28;7194;-73
2023/05/27 07:24:59;;;;;;;;;;;;;;;20.93;44.23;101568.97;4959495;28;7237;-72
2023/05/27 07:27:24;;;;;;;;;;;;;;;21.25;44.03;101568.81;4950330;28;6949;-74
2023/05/27 07:29:50;;;;;;;;;;;;;;;21.52;43.08;101562.44;4962708;28;6791;-72
2023/05/27 07:32:16;;;;;;;;;;;;;;;21.75;42.86;101559.47;4989570;28;6789;-73
2023/05/27 07:34:41;;;;;;;;;;;;;;;22.00;42.27;101562.56;4995187;28;6828;-72
2023/05/27 07:37:07;;;;;;;;;;;;;;;22.18;41.72;101551.56;4975988;28;7456;-73
2023/05/27 07:39:32;;;;;;;;;;;;;;;22.33;40.98;101543.13;4951269;28;6948;-72
2023/05/27 07:41:58;;;;;;;;;;;;;;;22.47;40.90;101539.03;4978579;28;6855;-72
2023/05/27 07:44:24;;;;;;;;;;;;;;;22.64;40.71;101529.75;4957418;28;6901;-74
2023/05/27 07:46:49;;;;;;;;;;;;;;;22.83;39.81;101531.78;4955681;28;7016;-72
2023/05/27 07:49:15;;;;;;;;;;;;;;;23.02;40.05;101532.06;4961200;28;6780;-73
2023/05/27 07:51:41;;;;;;;;;;;;;;;23.20;39.62;101525.34;4957512;28;7033;-71
2023/05/27 07:54:06;;;;;;;;;;;;;;;23.31;39.05;101534.22;4991114;28;7402;-73
2023/05/27 07:56:34;;;;;;;;;;;;;;;23.40;38.78;101529.13;4993971;28;7104;-72
2023/05/27 07:58:59;;;;;;;;;;;;;;;23.52;38.43;101530.13;4992416;28;8086;-74
2023/05/27 08:01:30;;;;;;;;;;;;;;;23.55;38.42;101530.16;4971071;28;9442;-74
2023/05/27 08:03:56;;;;;;;;;;;;;;;23.61;38.53;101532.84;4988620;28;6803;-74
2023/05/27 08:06:21;;;;;;;;;;;;;;;23.66;37.95;101528.56;4958686;28;6768;-74
2023/05/27 08:08:47;;;;;;;;;;;;;;;23.75;37.71;101524.28;4989853;28;7410;-73
2023/05/27 08:11:13;;;;;;;;;;;;;;;23.76;37.89;101526.03;4961771;28;6788;-73
2023/05/27 08:13:39;;;;;;;;;;;;;;;23.75;37.85;101525.16;4988070;28;6767;-74
2023/05/27 08:16:05;;;;;;;;;;;;;;;23.81;37.80;101519.13;4956781;28;7250;-72
2023/05/27 08:18:30;;;;;;;;;;;;;;;23.97;37.17;101510.56;4988039;28;6771;-72
2023/05/27 08:20:56;;;;;;;;;;;;;;;24.21;37.22;101501.19;4961488;28;6927;-75
2023/05/27 08:23:22;;;;;;;;;;;;;;;24.60;37.32;101503.25;4973206;28;7164;-74
2023/05/27 08:25:47;;;;;;;;;;;;;;;24.98;36.79;101497.41;4952279;28;7440;-73
2023/05/27 08:28:13;;;;;;;;;;;;;;;25.34;35.75;101495.81;4959568;28;6844;-73
2023/05/27 08:30:39;;;;;;;;;;;;;;;25.61;35.05;101493.31;4955156;28;6955;-73
2023/05/27 08:33:05;;;;;;;;;;;;;;;25.90;34.97;101490.75;4972884;28;8021;-72
2023/05/27 08:35:31;;;;;;;;;;;;;;;26.23;34.16;101482.03;4966951;28;7118;-74
2023/05/27 08:37:56;;;;;;;;;;;;;;;26.45;33.71;101480.28;4971763;28;6898;-72
2023/05/27 08:40:22;;;;;;;;;;;;;;;26.73;33.51;101477.63;4986768;28;7382;-72
2023/05/27 08:42:48;;;;;;;;;;;;;;;27.03;32.87;101476.66;4963124;28;6923;-72
2023/05/27 08:45:14;;;;;;;;;;;;;;;27.28;32.59;101475.69;4990367;28;6951;-72
2023/05/27 08:47:41;;;;;;;;;;;;;;;27.55;32.06;101474.69;4988878;28;8196;-75
2023/05/27 08:50:07;;;;;;;;;;;;;;;27.82;31.81;101470.16;4960049;28;6808;-74
2023/05/27 08:52:37;;;;;;;;;;;;;;;28.13;31.68;101467.25;4986293;28;7328;-73
2023/05/27 08:55:05;;;;;;;;;;;;;;;28.41;31.24;101450.34;4984387;28;7381;-73
2023/05/27 08:57:33;;;;;;;;;;;;;;;28.69;30.72;101456.22;4986615;28;6933;-74
2023/05/27 08:59:58;;;;;;;;;;;;;;;28.96;30.29;101458.56;4972111;28;7352;-75
2023/05/27 09:02:27;;;;;;;;;;;;;;;29.21;30.28;101458.22;4990541;28;6772;-73
2023/05/27 09:04:52;;;;;;;;;;;;;;;29.43;29.66;101458.81;4990436;28;6860;-74
2023/05/27 09:07:22;;;;;;;;;;;;;;;29.46;29.19;101452.66;4988085;28;7373;-71
2023/05/27 09:09:58;;;;;;;;;;;;;;;29.40;28.65;101448.31;4956554;28;7271;-73
2023/05/27 09:12:26;;;;;;;;;;;;;;;29.43;28.79;101447.41;4989374;28;8274;-72
2023/05/27 09:14:56;;;;;;;;;;;;;;;29.57;29.04;101439.31;4988668;28;6842;-72
2023/05/27 09:17:25;;;;;;;;;;;;;;;29.72;29.22;101439.06;4959459;28;7291;-72
2023/05/27 09:19:52;;;;;;;;;;;;;;;29.73;28.23;101438.16;4989526;28;6922;-73
2023/05/27 09:22:38;;;;;;;;;;;;;;;29.60;28.81;101432.22;4957961;28;9939;-71
2023/05/27 09:25:05;;;;;;;;;;;;;;;29.57;28.91;101426.97;4953856;28;6804;-71
2023/05/27 09:27:32;;;;;;;;;;;;;;;29.72;28.08;101428.50;4985078;28;6852;-72
2023/05/27 09:30:09;;;;;;;;;;;;;;;29.96;28.23;101430.75;4975517;28;6993;-73
2023/05/27 09:32:35;;;;;;;;;;;;;;;30.09;27.90;101427.03;4954118;28;11800;-71
2023/05/27 09:35:02;;;;;;;;;;;;;;;30.25;27.81;101427.63;4958214;28;6784;-72
2023/05/27 09:37:34;;;;;;;;;;;;;;;30.45;27.60;101421.09;4959977;28;7094;-73
2023/05/27 09:40:20;;;;;;;;;;;;;;;30.46;26.95;101423.69;4989241;28;7036;-73
2023/05/27 09:42:49;;;;;;;;;;;;;;;30.39;26.81;101416.81;4957452;28;6801;-71
2023/05/27 09:45:20;;;;;;;;;;;;;;;30.46;26.92;101417.56;4989374;28;6799;-70
2023/05/27 09:47:53;;;;;;;;;;;;;;;30.50;26.85;101413.94;4962586;28;6980;-71
2023/05/27 09:50:21;;;;;;;;;;;;;;;30.42;26.87;101418.50;4956372;28;7191;-73
2023/05/27 09:52:48;;;;;;;;;;;;;;;30.28;26.78;101408.22;4953387;28;7253;-72
2023/05/27 09:55:16;;;;;;;;;;;;;;;30.35;27.00;101412.47;4973358;28;6988;-71
2023/05/27 09:57:42;;;;;;;;;;;;;;;30.63;26.99;101402.22;4975932;28;6975;-73
2023/05/27 10:00:11;;;;;;;;;;;;;;;30.96;26.25;101398.06;4988595;28;6844;-71
2023/05/27 10:02:41;;;;;;;;;;;;;;;31.25;26.32;101393.91;4942366;28;14019;-71
2023/05/27 10:05:08;;;;;;;;;;;;;;;31.48;25.88;101393.38;4956888;28;6876;-70
2023/05/27 10:07:38;;;;;;;;;;;;;;;31.65;25.77;101392.94;4986379;28;7437;-71
2023/05/27 10:10:14;;;;;;;;;;;;;;;31.78;25.61;101390.84;4961609;28;6800;-71
2023/05/27 10:12:46;;;;;;;;;;;;;;;31.78;25.24;101388.19;4959359;28;6816;-72
2023/05/27 10:15:27;;;;;;;;;;;;;;;31.82;25.40;101379.31;4957184;28;6982;-71
2023/05/27 10:17:57;;;;;;;;;;;;;;;31.96;25.00;101376.28;4986526;28;7096;-70
2023/05/27 10:20:39;;;;;;;;;;;;;;;32.20;24.97;101376.53;4956861;28;7264;-70
2023/05/27 10:23:25;;;;;;;;;;;;;;;32.42;24.58;101373.31;4988616;28;6831;-73
2023/05/27 10:25:57;;;;;;;;;;;;;;;32.48;24.75;101373.13;4988878;28;6791;-74
2023/05/27 10:28:44;;;;;;;;;;;;;;;32.61;24.73;101370.13;4988305;28;6991;-71
2023/05/27 10:31:15;;;;;;;;;;;;;;;32.69;24.14;101373.41;4968416;28;7368;-71
2023/05/27 10:33:48;;;;;;;;;;;;;;;32.70;24.13;101367.19;4980892;28;6799;-71
2023/05/27 10:36:16;;;;;;;;;;;;;;;32.92;24.33;101361.25;4942084;28;7631;-71
2023/05/27 10:38:54;;;;;;;;;;;;;;;33.24;24.15;101352.28;4958974;28;6796;-71
2023/05/27 10:41:22;;;;;;;;;;;;;;;33.29;23.07;101359.25;4955610;28;7010;-73
2023/05/27 10:43:59;;;;;;;;;;;;;;;33.05;23.02;101346.69;4967624;28;7017;-70
2023/05/27 10:46:26;;;;;;;;;;;;;;;32.89;22.68;101351.59;4973540;28;6995;-71
2023/05/27 10:48:52;;;;;;;;;;;;;;;32.73;22.82;101351.16;4984947;28;6792;-71
2023/05/27 10:51:17;;;;;;;;;;;;;;;32.69;23.16;101341.56;4971475;28;6829;-71
2023/05/27 10:53:43;;;;;;;;;;;;;;;32.71;22.26;101345.03;4957478;28;6931;-72
2023/05/27 10:56:09;;;;;;;;;;;;;;;32.71;22.17;101338.88;4986393;28;6772;-71
2023/05/27 10:58:37;;;;;;;;;;;;;;;32.78;22.06;101335.09;4953518;28;6800;-71
2023/05/27 11:01:16;;;;;;;;;;;;;;;32.87;21.89;101315.41;4981512;28;7048;-71
2023/05/27 11:03:44;;;;;;;;;;;;;;;32.80;22.27;101331.50;4958665;28;7214;-70
2023/05/27 11:06:11;;;;;;;;;;;;;;;32.80;22.56;101320.88;4989887;28;7023;-72
2023/05/27 11:08:39;;;;;;;;;;;;;;;32.94;21.77;101330.25;4949047;28;6929;-71
2023/05/27 11:11:08;;;;;;;;;;;;;;;32.93;22.57;101323.19;4973499;28;7007;-72
2023/05/27 11:13:44;;;;;;;;;;;;;;;32.96;22.03;101317.78;4961344;28;6800;-72
2023/05/27 11:16:13;;;;;;;;;;;;;;;33.06;22.43;101321.88;4978165;28;6972;-70
2023/05/27 11:18:47;;;;;;;;;;;;;;;33.12;22.14;101320.81;4961763;28;6862;-71
2023/05/27 11:21:18;;;;;;;;;;;;;;;33.11;22.07;101316.44;4978490;28;7094;-73
2023/05/27 11:23:47;;;;;;;;;;;;;;;33.12;21.63;101315.50;4981978;28;6880;-73
2023/05/27 11:26:23;;;;;;;;;;;;;;;33.05;21.99;101314.84;4956369;28;6820;-73
2023/05/27 11:28:56;;;;;;;;;;;;;;;32.92;22.07;101302.88;4959545;28;8454;-70
2023/05/27 11:31:28;;;;;;;;;;;;;;;32.85;21.80;101301.31;4988198;28;7069;-72
2023/05/27 11:33:54;;;;;;;;;;;;;;;32.92;21.95;101303.75;4971892;28;7036;-73
2023/05/27 11:36:21;;;;;;;;;;;;;;;33.03;22.01;101295.44;4956619;28;6784;-73
2023/05/27 11:38:58;;;;;;;;;;;;;;;33.37;22.06;101288.16;4987869;28;6796;-73
2023/05/27 11:41:29;;;;;;;;;;;;;;;33.68;21.34;101286.22;4980622;28;6800;-73
2023/05/27 11:43:57;;;;;;;;;;;;;;;33.73;21.15;101284.28;4958723;28;7034;-73
2023/05/27 11:46:35;;;;;;;;;;;;;;;33.74;21.64;101275.38;4966271;28;6985;-73
2023/05/27 11:49:03;;;;;;;;;;;;;;;33.73;21.26;101268.34;4960749;28;6804;-73
2023/05/27 11:51:32;;;;;;;;;;;;;;;33.66;21.83;101268.53;4993447;28;7096;-73
2023/05/27 11:54:00;;;;;;;;;;;;;;;33.60;21.41;101268.75;4991487;28;6824;-73
2023/05/27 11:56:28;;;;;;;;;;;;;;;33.48;21.30;101263.88;4964174;28;6899;-73
2023/05/27 11:58:55;;;;;;;;;;;;;;;33.35;21.33;101256.31;4960250;28;6999;-72
2023/05/27 12:01:22;;;;;;;;;;;;;;;33.39;21.50;101254.41;4971294;28;6993;-73
2023/05/27 12:03:48;;;;;;;;;;;;;;;33.63;21.39;101257.16;4971412;28;7416;-73
2023/05/27 12:06:15;;;;;;;;;;;;;;;33.75;21.33;101251.38;4989850;28;6958;-73
2023/05/27 12:08:44;;;;;;;;;;;;;;;33.62;21.54;101256.31;4976478;28;6846;-73
2023/05/27 12:11:10;;;;;;;;;;;;;;;33.51;21.00;101248.69;4952656;28;6784;-73
2023/05/27 12:13:36;;;;;;;;;;;;;;;33.61;21.31;101238.63;4956753;28;6909;-72
2023/05/27 12:16:03;;;;;;;;;;;;;;;33.83;21.67;101236.94;4973314;28;7137;-73
2023/05/27 12:18:29;;;;;;;;;;;;;;;33.82;21.20;101240.53;4974303;28;6888;-73
2023/05/27 12:20:55;;;;;;;;;;;;;;;33.51;21.67;101232.75;4982743;28;7021;-73
2023/05/27 12:23:21;;;;;;;;;;;;;;;33.14;21.58;101241.13;4951223;28;6933;-72
2023/05/27 12:25:46;;;;;;;;;;;;;;;32.63;22.01;101238.28;4974844;28;7173;-73
2023/05/27 12:28:12;;;;;;;;;;;;;;;32.28;22.48;101234.00;4955235;28;7055;-73
2023/05/27 12:30:39;;;;;;;;;;;;;;;32.12;22.43;101233.59;4977066;28;7359;-73
2023/05/27 12:33:06;;;;;;;;;;;;;;;32.11;22.70;101228.34;4954477;28;6772;-73
2023/05/27 12:35:33;;;;;;;;;;;;;;;32.04;22.83;101229.41;4945596;28;7004;-73
2023/05/27 12:37:59;;;;;;;;;;;;;;;32.07;22.77;101224.03;4973780;28;7081;-73
2023/05/27 12:40:26;;;;;;;;;;;;;;;32.11;22.79;101218.59;4991146;28;6783;-73
2023/05/27 12:42:52;;;;;;;;;;;;;;;32.17;22.74;101214.91;4960346;28;8185;-73
2023/05/27 12:45:21;;;;;;;;;;;;;;;32.39;22.62;101209.81;4959786;28;6780;-73
2023/05/27 12:47:48;;;;;;;;;;;;;;;32.71;23.08;101204.41;4988995;28;7278;-73
2023/05/27 12:50:14;;;;;;;;;;;;;;;32.89;22.79;101210.03;4960657;28;6972;-73